createdAt,value
2022-10-10T00:00:47.520Z,10.00
2022-10-10T00:03:35.469Z,10.00
2022-10-10T00:06:21.510Z,9.90
2022-10-10T00:09:07.111Z,10.00
2022-10-10T00:11:52.909Z,9.90
2022-10-10T00:14:38.242Z,9.90
2022-10-10T00:17:23.581Z,9.90
2022-10-10T00:20:15.031Z,9.90
2022-10-10T00:23:00.316Z,9.90
2022-10-10T00:25:46.235Z,9.90
2022-10-10T00:28:32.113Z,9.90
2022-10-10T00:31:17.632Z,9.90
2022-10-10T00:34:03.608Z,9.90
2022-10-10T00:36:49.200Z,9.80
2022-10-10T00:39:37.216Z,9.90
2022-10-10T00:42:22.983Z,9.80
2022-10-10T00:45:41.481Z,9.80
2022-10-10T00:48:41.036Z,9.80
2022-10-10T00:51:26.592Z,9.80
2022-10-10T00:54:15.836Z,9.80
2022-10-10T00:57:06.219Z,9.80
2022-10-10T00:59:53.378Z,9.80
2022-10-10T01:02:41.755Z,9.80
2022-10-10T01:05:27.105Z,9.80
2022-10-10T01:08:13.063Z,9.80
2022-10-10T01:11:32.748Z,9.80
2022-10-10T01:14:38.413Z,9.70
2022-10-10T01:17:30.266Z,9.70
2022-10-10T01:20:33.823Z,9.70
2022-10-10T01:23:35.631Z,9.70
2022-10-10T01:26:39.395Z,9.70
2022-10-10T01:29:37.901Z,9.60
2022-10-10T01:32:40.079Z,9.60
2022-10-10T01:35:40.255Z,9.60
2022-10-10T01:38:44.150Z,9.60
2022-10-10T01:41:40.528Z,9.60
2022-10-10T01:44:25.629Z,9.50
2022-10-10T01:47:11.887Z,9.50
2022-10-10T01:50:03.275Z,9.50
2022-10-10T01:53:15.814Z,9.50
2022-10-10T01:56:27.603Z,9.40
2022-10-10T02:00:11.564Z,9.40
2022-10-10T02:03:07.825Z,9.40
2022-10-10T02:05:59.498Z,9.30
2022-10-10T02:09:03.740Z,9.30
2022-10-10T02:11:49.864Z,9.30
2022-10-10T02:14:41.468Z,9.20
2022-10-10T02:17:27.385Z,9.20
2022-10-10T02:20:16.218Z,9.10
2022-10-10T02:23:01.944Z,9.10
2022-10-10T02:25:52.941Z,9.10
2022-10-10T02:28:48.080Z,9.20
2022-10-10T02:31:38.628Z,9.20
2022-10-10T02:34:28.913Z,9.20
2022-10-10T02:37:16.192Z,9.10
2022-10-10T02:40:04.681Z,9.20
2022-10-10T02:42:52.188Z,9.10
2022-10-10T02:45:39.939Z,9.20
2022-10-10T02:48:27.915Z,9.10
2022-10-10T02:51:14.939Z,9.10
2022-10-10T02:54:00.945Z,9.10
2022-10-10T02:56:46.763Z,9.10
2022-10-10T02:59:34.736Z,9.20
2022-10-10T03:02:19.919Z,9.10
2022-10-10T03:05:06.092Z,9.10
2022-10-10T03:07:51.455Z,9.10
2022-10-10T03:10:36.644Z,9.20
2022-10-10T03:13:22.128Z,9.20
2022-10-10T03:16:07.732Z,9.20
2022-10-10T03:18:52.999Z,9.20
2022-10-10T03:21:38.523Z,9.20
2022-10-10T03:24:24.031Z,9.20
2022-10-10T03:27:09.640Z,9.10
2022-10-10T03:29:55.631Z,9.20
2022-10-10T03:32:43.207Z,9.20
2022-10-10T03:35:28.840Z,9.20
2022-10-10T03:38:15.228Z,9.10
2022-10-10T03:41:00.926Z,9.20
2022-10-10T03:43:46.641Z,9.10
2022-10-10T03:46:33.537Z,9.20
2022-10-10T03:49:19.241Z,9.20
2022-10-10T03:52:04.570Z,9.10
2022-10-10T03:54:49.728Z,9.20
2022-10-10T03:57:35.327Z,9.20
2022-10-10T04:00:20.987Z,9.20
2022-10-10T04:03:06.767Z,9.20
2022-10-10T04:05:52.241Z,9.20
2022-10-10T04:08:37.806Z,9.30
2022-10-10T04:11:23.487Z,9.20
2022-10-10T04:14:08.897Z,9.20
2022-10-10T04:16:54.351Z,9.30
2022-10-10T04:19:40.071Z,9.20
2022-10-10T04:22:25.598Z,9.20
2022-10-10T04:25:11.676Z,9.30
2022-10-10T04:28:00.869Z,9.30
2022-10-10T04:30:47.164Z,9.30
2022-10-10T04:33:32.340Z,9.30
2022-10-10T04:36:17.604Z,9.30
2022-10-10T04:39:03.623Z,9.30
2022-10-10T04:41:49.998Z,9.30
2022-10-10T04:44:35.886Z,9.30
2022-10-10T04:47:21.194Z,9.30
2022-10-10T04:50:07.046Z,9.40
2022-10-10T04:52:53.105Z,9.30
2022-10-10T04:55:38.760Z,9.30
2022-10-10T04:58:27.219Z,9.30
2022-10-10T05:01:12.579Z,9.30
2022-10-10T05:04:01.078Z,9.30
2022-10-10T05:06:46.303Z,9.40
2022-10-10T05:09:33.692Z,9.40
2022-10-10T05:12:18.955Z,9.40
2022-10-10T05:15:04.584Z,9.40
2022-10-10T05:17:50.335Z,9.30
2022-10-10T05:20:39.201Z,9.30
2022-10-10T05:23:24.831Z,9.30
2022-10-10T05:26:10.719Z,9.30
2022-10-10T05:28:56.458Z,9.30
2022-10-10T05:31:41.809Z,9.30
2022-10-10T05:34:27.144Z,9.30
2022-10-10T05:37:12.658Z,9.30
2022-10-10T05:39:58.668Z,9.30
2022-10-10T05:42:45.528Z,9.30
2022-10-10T05:45:30.956Z,9.40
2022-10-10T05:48:16.446Z,9.30
2022-10-10T05:51:02.007Z,9.40
2022-10-10T05:53:48.006Z,9.30
2022-10-10T05:56:33.323Z,9.40
2022-10-10T05:59:18.871Z,9.40
2022-10-10T06:02:04.452Z,9.40
2022-10-10T06:04:49.900Z,9.40
2022-10-10T06:07:59.533Z,9.50
2022-10-10T06:10:47.617Z,9.50
2022-10-10T06:13:32.927Z,9.50
2022-10-10T06:16:18.791Z,9.60
2022-10-10T06:19:04.171Z,9.60
2022-10-10T06:21:49.804Z,9.80
2022-10-10T06:24:35.115Z,9.80
2022-10-10T06:27:23.882Z,9.90
2022-10-10T06:30:10.456Z,9.90
2022-10-10T06:32:57.617Z,9.90
2022-10-10T06:35:44.366Z,9.90
2022-10-10T06:38:32.583Z,9.90
2022-10-10T06:41:18.175Z,10.00
2022-10-10T06:44:04.044Z,10.10
2022-10-10T06:46:49.484Z,10.10
2022-10-10T06:49:39.325Z,10.20
2022-10-10T06:52:25.617Z,10.20
2022-10-10T06:55:10.928Z,10.20
2022-10-10T06:57:56.949Z,10.30
2022-10-10T07:00:48.101Z,10.30
2022-10-10T07:03:34.072Z,10.40
2022-10-10T07:06:19.659Z,10.50
2022-10-10T07:09:05.636Z,10.50
2022-10-10T07:11:50.827Z,10.60
2022-10-10T07:14:36.361Z,10.70
2022-10-10T07:17:21.939Z,10.70
2022-10-10T07:20:07.776Z,10.80
2022-10-10T07:23:03.168Z,10.90
2022-10-10T07:25:48.996Z,11.00
2022-10-10T07:28:34.982Z,11.10
2022-10-10T07:31:20.237Z,11.30
2022-10-10T07:34:06.476Z,11.40
2022-10-10T07:36:57.438Z,11.50
2022-10-10T07:39:42.894Z,11.70
2022-10-10T07:42:31.632Z,11.80
2022-10-10T07:45:17.455Z,12.00
2022-10-10T07:48:03.213Z,12.20
2022-10-10T07:50:48.707Z,12.50
2022-10-10T07:53:34.594Z,12.60
2022-10-10T07:56:19.739Z,12.80
2022-10-10T07:59:05.383Z,13.00
2022-10-10T08:01:55.911Z,13.10
2022-10-10T08:04:41.321Z,13.30
2022-10-10T08:07:26.718Z,13.30
2022-10-10T08:10:12.644Z,13.50
2022-10-10T08:12:58.215Z,13.50
2022-10-10T08:15:44.057Z,13.60
2022-10-10T08:18:32.015Z,13.70
2022-10-10T08:21:18.392Z,13.70
2022-10-10T08:24:04.312Z,13.80
2022-10-10T08:26:51.012Z,13.90
2022-10-10T08:29:37.159Z,13.90
2022-10-10T08:32:23.324Z,14.00
2022-10-10T08:35:08.846Z,14.10
2022-10-10T08:37:54.983Z,14.10
2022-10-10T08:40:52.034Z,14.20
2022-10-10T08:43:52.567Z,14.30
2022-10-10T08:46:54.879Z,14.30
2022-10-10T08:50:00.427Z,14.30
2022-10-10T08:52:55.084Z,14.40
2022-10-10T08:55:43.772Z,14.50
2022-10-10T08:58:38.721Z,14.50
2022-10-10T09:01:32.293Z,14.60
2022-10-10T09:04:19.566Z,14.70
2022-10-10T09:07:31.755Z,14.80
2022-10-10T09:10:31.812Z,14.90
2022-10-10T09:13:59.102Z,15.00
2022-10-10T09:16:54.927Z,15.10
2022-10-10T09:20:10.839Z,15.20
2022-10-10T09:23:16.834Z,15.30
2022-10-10T09:26:13.031Z,15.50
2022-10-10T09:29:05.184Z,15.60
2022-10-10T09:31:56.092Z,15.80
2022-10-10T09:34:47.467Z,15.90
2022-10-10T09:37:53.429Z,16.10
2022-10-10T09:40:47.100Z,16.20
2022-10-10T09:43:35.127Z,16.40
2022-10-10T09:46:20.450Z,16.50
2022-10-10T09:49:06.150Z,16.60
2022-10-10T09:51:51.779Z,16.80
2022-10-10T09:54:38.068Z,16.80
2022-10-10T09:57:29.053Z,17.00
2022-10-10T10:00:20.632Z,17.10
2022-10-10T10:03:09.197Z,17.10
2022-10-10T10:05:57.172Z,17.20
2022-10-10T10:08:49.782Z,17.30
2022-10-10T10:11:42.895Z,17.50
2022-10-10T10:14:32.185Z,17.50
2022-10-10T10:17:22.256Z,17.60
2022-10-10T10:20:30.265Z,17.60
2022-10-10T10:23:31.323Z,17.70
2022-10-10T10:26:44.956Z,18.00
2022-10-10T10:29:33.719Z,18.20
2022-10-10T10:32:31.428Z,18.40
2022-10-10T10:35:28.794Z,18.50
2022-10-10T10:38:57.700Z,18.60
2022-10-10T10:42:05.523Z,18.60
2022-10-10T10:45:20.955Z,18.70
2022-10-10T10:48:24.947Z,18.60
2022-10-10T10:51:32.099Z,18.50
2022-10-10T10:54:39.544Z,18.40
2022-10-10T10:58:04.764Z,18.20
2022-10-10T11:01:23.598Z,18.20
2022-10-10T11:05:18.330Z,18.30
2022-10-10T11:08:08.236Z,18.50
2022-10-10T11:10:56.772Z,18.80
2022-10-10T11:14:07.114Z,18.70
2022-10-10T11:17:01.192Z,18.60
2022-10-10T11:20:03.976Z,18.50
2022-10-10T11:23:12.189Z,18.60
2022-10-10T11:26:02.723Z,18.50
2022-10-10T11:28:57.113Z,18.40
2022-10-10T11:32:11.205Z,18.30
2022-10-10T11:35:18.077Z,18.30
2022-10-10T11:38:17.020Z,18.30
2022-10-10T11:41:27.875Z,18.20
2022-10-10T11:44:34.296Z,18.20
2022-10-10T11:47:35.056Z,18.20
2022-10-10T11:50:34.064Z,18.20
2022-10-10T11:53:41.225Z,18.20
2022-10-10T11:56:39.122Z,18.20
2022-10-10T11:59:35.020Z,18.10
2022-10-10T12:02:31.004Z,18.00
2022-10-10T12:05:29.314Z,18.00
2022-10-10T12:09:06.206Z,17.90
2022-10-10T12:12:06.147Z,17.80
2022-10-10T12:14:56.028Z,17.80
2022-10-10T12:17:46.111Z,17.80
2022-10-10T12:20:35.430Z,17.70
2022-10-10T12:23:31.829Z,17.60
2022-10-10T12:26:21.671Z,17.50
2022-10-10T12:29:10.687Z,17.40
2022-10-10T12:32:13.499Z,17.50
2022-10-10T12:35:03.304Z,17.40
2022-10-10T12:38:07.476Z,17.40
2022-10-10T12:41:12.856Z,17.30
2022-10-10T12:44:08.342Z,17.30
2022-10-10T12:47:15.750Z,17.20
2022-10-10T12:50:04.239Z,17.20
2022-10-10T12:53:01.781Z,17.20
2022-10-10T12:55:51.530Z,17.20
2022-10-10T12:58:41.321Z,17.20
2022-10-10T13:01:32.012Z,17.10
2022-10-10T13:04:18.949Z,17.10
2022-10-10T13:07:04.999Z,17.00
2022-10-10T13:09:53.009Z,16.90
2022-10-10T13:12:38.436Z,16.80
2022-10-10T13:15:27.265Z,16.60
2022-10-10T13:18:12.780Z,16.40
2022-10-10T13:20:58.290Z,16.20
2022-10-10T13:26:53.891Z,16.00
2022-10-10T13:29:40.914Z,15.90
2022-10-10T13:32:33.361Z,15.90
2022-10-10T13:35:24.981Z,15.80
2022-10-10T13:38:13.379Z,15.70
2022-10-10T13:40:59.229Z,15.60
2022-10-10T13:43:48.003Z,15.50
2022-10-10T13:46:33.893Z,15.50
2022-10-10T13:49:28.411Z,15.50
2022-10-10T13:52:24.009Z,15.50
2022-10-10T13:55:24.981Z,15.50
2022-10-10T13:58:10.975Z,15.50
2022-10-10T14:01:02.872Z,15.50
2022-10-10T14:03:51.571Z,15.60
2022-10-10T14:06:37.279Z,15.70
2022-10-10T14:09:30.619Z,15.80
2022-10-10T14:12:25.330Z,15.90
2022-10-10T14:15:29.695Z,16.00
2022-10-10T14:18:17.326Z,16.30
2022-10-10T14:21:03.337Z,16.60
2022-10-10T14:23:48.931Z,17.00
2022-10-10T14:26:36.272Z,17.50
2022-10-10T14:29:22.520Z,18.10
2022-10-10T14:32:13.079Z,19.70
2022-10-10T14:34:58.634Z,21.80
2022-10-10T14:37:44.021Z,23.50
2022-10-10T14:40:31.924Z,25.40
2022-10-10T14:43:20.510Z,27.40
2022-10-10T14:46:06.383Z,29.10
2022-10-10T14:48:51.562Z,30.70
2022-10-10T14:51:38.519Z,31.90
2022-10-10T14:54:23.719Z,33.00
2022-10-10T14:57:14.536Z,34.00
2022-10-10T15:00:00.155Z,34.90
2022-10-10T15:02:46.132Z,35.60
2022-10-10T15:05:31.676Z,35.80
2022-10-10T15:08:19.177Z,36.30
2022-10-10T15:11:05.357Z,37.10
2022-10-10T15:13:50.772Z,37.30
2022-10-10T15:16:36.121Z,37.50
2022-10-10T15:19:21.621Z,37.50
2022-10-10T15:22:07.092Z,37.70
2022-10-10T15:24:52.643Z,36.90
2022-10-10T15:27:38.615Z,34.80
2022-10-10T15:30:24.875Z,33.10
2022-10-10T15:33:10.535Z,33.20
2022-10-10T15:36:10.002Z,34.00
2022-10-10T15:38:58.492Z,34.60
2022-10-10T15:41:43.681Z,35.40
2022-10-10T15:44:29.270Z,35.20
2022-10-10T15:47:16.641Z,34.80
2022-10-10T15:50:02.215Z,35.00
2022-10-10T15:52:48.930Z,34.50
2022-10-10T15:55:40.447Z,33.90
2022-10-10T15:58:26.046Z,33.00
2022-10-10T16:01:22.497Z,32.50
2022-10-10T16:04:07.729Z,31.90
2022-10-10T16:07:19.937Z,31.50
2022-10-10T16:10:01.180Z,31.00
2022-10-10T16:12:46.934Z,30.40
2022-10-10T16:15:32.488Z,30.00
2022-10-10T16:18:20.405Z,29.80
2022-10-10T16:21:08.009Z,29.60
2022-10-10T16:23:57.896Z,29.40
2022-10-10T16:26:43.559Z,28.70
2022-10-10T16:29:29.061Z,28.40
2022-10-10T16:32:14.776Z,28.00
2022-10-10T16:34:59.901Z,27.30
2022-10-10T16:37:45.427Z,26.00
2022-10-10T16:40:30.943Z,24.70
2022-10-10T16:43:17.357Z,23.70
2022-10-10T16:46:04.240Z,22.70
2022-10-10T16:48:49.879Z,21.70
2022-10-10T16:51:35.611Z,20.90
2022-10-10T16:54:20.773Z,20.00
2022-10-10T16:57:06.467Z,19.40
2022-10-10T16:59:55.718Z,18.80
2022-10-10T17:02:42.365Z,18.30
2022-10-10T17:05:27.909Z,17.80
2022-10-10T17:08:13.773Z,17.40
2022-10-10T17:11:00.703Z,17.00
2022-10-10T17:13:46.826Z,16.70
2022-10-10T17:19:38.064Z,16.00
2022-10-10T17:22:23.396Z,15.70
2022-10-10T17:25:09.588Z,15.40
2022-10-10T17:27:54.716Z,15.10
2022-10-10T17:30:45.620Z,14.90
2022-10-10T17:33:31.336Z,14.70
2022-10-10T17:36:22.399Z,14.50
2022-10-10T17:39:07.951Z,14.30
2022-10-10T17:41:53.346Z,14.10
2022-10-10T17:44:43.679Z,14.00
2022-10-10T17:47:33.810Z,13.80
2022-10-10T17:50:19.240Z,13.70
2022-10-10T17:53:04.771Z,13.50
2022-10-10T17:55:50.483Z,13.40
2022-10-10T17:58:35.696Z,13.30
2022-10-10T18:01:22.126Z,13.20
2022-10-10T18:04:07.752Z,13.10
2022-10-10T18:06:53.236Z,13.00
2022-10-10T18:09:38.875Z,13.00
2022-10-10T18:12:24.375Z,13.00
2022-10-10T18:15:10.552Z,13.10
2022-10-10T18:17:56.080Z,13.10
2022-10-10T18:20:41.616Z,13.10
2022-10-10T18:23:28.131Z,13.00
2022-10-10T18:26:16.886Z,12.90
2022-10-10T18:29:02.442Z,12.80
2022-10-10T18:31:48.165Z,12.80
2022-10-10T18:34:36.519Z,12.70
2022-10-10T18:37:22.056Z,12.60
2022-10-10T18:40:08.139Z,12.50
2022-10-10T18:42:55.963Z,12.40
2022-10-10T18:45:41.411Z,12.30
2022-10-10T18:48:27.287Z,12.20
2022-10-10T18:51:15.212Z,12.20
2022-10-10T18:54:08.267Z,12.10
2022-10-10T18:56:53.554Z,12.00
2022-10-10T18:59:39.252Z,11.90
2022-10-10T19:02:24.584Z,11.80
2022-10-10T19:05:09.962Z,11.80
2022-10-10T19:07:58.158Z,11.70
2022-10-10T19:10:48.798Z,11.70
2022-10-10T19:13:37.652Z,11.70
2022-10-10T19:16:23.095Z,11.70
2022-10-10T19:19:10.225Z,11.60
2022-10-10T19:21:56.471Z,11.60
2022-10-10T19:24:42.324Z,11.60
2022-10-10T19:27:27.463Z,11.50
2022-10-10T19:30:13.415Z,11.60
2022-10-10T19:32:59.316Z,11.60
2022-10-10T19:35:52.085Z,11.70
2022-10-10T19:38:40.235Z,11.80
2022-10-10T19:41:25.988Z,11.90
2022-10-10T19:44:11.461Z,11.90
2022-10-10T19:46:56.672Z,11.90
2022-10-10T19:49:42.152Z,11.90
2022-10-10T19:52:27.628Z,11.80
2022-10-10T19:55:13.056Z,11.70
2022-10-10T19:57:58.315Z,11.70
2022-10-10T20:00:43.703Z,11.70
2022-10-10T20:03:29.161Z,11.60
2022-10-10T20:06:17.178Z,11.60
2022-10-10T20:09:03.554Z,11.60
2022-10-10T20:11:51.367Z,11.60
2022-10-10T20:14:36.886Z,11.60
2022-10-10T20:17:22.445Z,11.60
2022-10-10T20:20:08.320Z,11.60
2022-10-10T20:22:53.864Z,11.60
2022-10-10T20:25:41.046Z,11.70
2022-10-10T20:28:26.689Z,11.80
2022-10-10T20:31:19.785Z,11.70
2022-10-10T20:34:06.618Z,11.60
2022-10-10T20:36:52.508Z,11.60
2022-10-10T20:39:37.823Z,11.60
2022-10-10T20:42:23.004Z,11.50
2022-10-10T20:45:11.420Z,11.50
2022-10-10T20:47:57.279Z,11.40
2022-10-10T20:50:42.579Z,11.40
2022-10-10T20:53:28.127Z,11.40
2022-10-10T20:56:13.726Z,11.30
2022-10-10T20:58:59.797Z,11.30
2022-10-10T21:01:47.916Z,11.30
2022-10-10T21:04:36.224Z,11.30
2022-10-10T21:07:21.766Z,11.20
2022-10-10T21:10:07.779Z,11.20
2022-10-10T21:12:53.300Z,11.20
2022-10-10T21:15:43.221Z,11.10
2022-10-10T21:18:28.670Z,11.00
2022-10-10T21:21:14.277Z,11.00
2022-10-10T21:24:01.177Z,10.90
2022-10-10T21:26:48.975Z,10.80
2022-10-10T21:29:34.363Z,10.80
2022-10-10T21:32:20.452Z,10.80
2022-10-10T21:35:05.916Z,10.80
2022-10-10T21:37:52.815Z,10.70
2022-10-10T21:40:38.451Z,10.70
2022-10-10T21:43:23.865Z,10.70
2022-10-10T21:46:13.309Z,10.70
2022-10-10T21:49:02.163Z,10.70
2022-10-10T21:51:47.811Z,10.60
2022-10-10T21:54:33.638Z,10.60
2022-10-10T21:57:18.936Z,10.50
2022-10-10T22:00:07.071Z,10.50
2022-10-10T22:02:52.415Z,10.50
2022-10-10T22:05:40.512Z,10.50
2022-10-10T22:08:26.267Z,10.50
2022-10-10T22:11:15.290Z,10.50
2022-10-10T22:14:02.358Z,10.60
2022-10-10T22:16:48.076Z,10.60
2022-10-10T22:19:33.286Z,10.60
2022-10-10T22:22:18.976Z,10.60
2022-10-10T22:25:06.250Z,10.50
2022-10-10T22:27:56.313Z,10.50
2022-10-10T22:30:43.204Z,10.50
2022-10-10T22:33:28.873Z,10.60
2022-10-10T22:36:14.486Z,10.50
2022-10-10T22:39:00.458Z,10.50
2022-10-10T22:41:46.064Z,10.50
2022-10-10T22:44:31.214Z,10.50
2022-10-10T22:47:16.747Z,10.50
2022-10-10T22:50:02.289Z,10.50
2022-10-10T22:52:47.889Z,10.40
2022-10-10T22:55:33.643Z,10.40
2022-10-10T22:58:19.071Z,10.30
2022-10-10T23:01:06.633Z,10.30
2022-10-10T23:04:00.145Z,10.20
2022-10-10T23:06:46.289Z,10.20
2022-10-10T23:09:31.783Z,10.20
2022-10-10T23:12:17.240Z,10.10
2022-10-10T23:15:02.639Z,10.10
2022-10-10T23:17:47.859Z,10.10
2022-10-10T23:20:33.426Z,10.10
2022-10-10T23:23:19.120Z,10.10
2022-10-10T23:26:09.053Z,10.10
2022-10-10T23:28:54.782Z,10.10
2022-10-10T23:31:40.178Z,10.10
2022-10-10T23:34:25.728Z,10.20
2022-10-10T23:37:11.350Z,10.10
2022-10-10T23:39:56.363Z,10.10
2022-10-10T23:42:41.740Z,10.00
2022-10-10T23:45:27.119Z,10.00
2022-10-10T23:48:12.538Z,10.00
2022-10-10T23:50:57.756Z,10.00
2022-10-10T23:53:43.266Z,10.10
2022-10-10T23:56:28.671Z,10.10
2022-10-10T23:59:14.243Z,10.10
